sensor_id;sensor_type;location;lat;lon;timestamp;pressure;altitude;pressure_sealevel;temperature;humidity
42111;BME280;27766;52.174;5.456;2023-12-20T00:00:37;101440.41;;;7.44;100.00
42111;BME280;27766;52.174;5.456;2023-12-20T00:03:07;101428.72;;;7.52;100.00
42111;BME280;27766;52.174;5.456;2023-12-20T00:05:34;101439.31;;;7.60;100.00
42111;BME280;27766;52.174;5.456;2023-12-20T00:08:02;101429.34;;;7.47;100.00
42111;BME280;27766;52.174;5.456;2023-12-20T00:10:30;101428.78;;;7.54;100.00
42111;BME280;27766;52.174;5.456;2023-12-20T00:12:57;101425.28;;;7.31;100.00
42111;BME280;27766;52.174;5.456;2023-12-20T00:15:24;101423.06;;;7.40;100.00
42111;BME280;27766;52.174;5.456;2023-12-20T00:17:51;101404.69;;;7.31;100.00
42111;BME280;27766;52.174;5.456;2023-12-20T00:20:19;101410.66;;;7.29;100.00
42111;BME280;27766;52.174;5.456;2023-12-20T00:22:46;101413.56;;;7.16;100.00
42111;BME280;27766;52.174;5.456;2023-12-20T00:25:13;101418.75;;;7.18;100.00
42111;BME280;27766;52.174;5.456;2023-12-20T00:27:41;101418.19;;;7.25;100.00
42111;BME280;27766;52.174;5.456;2023-12-20T00:30:09;101410.53;;;7.26;100.00
42111;BME280;27766;52.174;5.456;2023-12-20T00:32:36;101417.69;;;7.34;100.00
42111;BME280;27766;52.174;5.456;2023-12-20T00:35:04;101413.81;;;7.22;100.00
42111;BME280;27766;52.174;5.456;2023-12-20T00:37:31;101422.38;;;7.23;100.00
42111;BME280;27766;52.174;5.456;2023-12-20T00:39:59;101424.91;;;7.21;100.00
42111;BME280;27766;52.174;5.456;2023-12-20T00:42:26;101423.66;;;7.11;100.00
42111;BME280;27766;52.174;5.456;2023-12-20T00:44:53;101422.09;;;7.15;100.00
42111;BME280;27766;52.174;5.456;2023-12-20T00:47:21;101417.84;;;7.17;100.00
42111;BME280;27766;52.174;5.456;2023-12-20T00:49:49;101421.63;;;7.25;100.00
42111;BME280;27766;52.174;5.456;2023-12-20T00:52:16;101416.03;;;7.15;100.00
42111;BME280;27766;52.174;5.456;2023-12-20T00:54:45;101418.22;;;7.05;100.00
42111;BME280;27766;52.174;5.456;2023-12-20T00:57:12;101415.22;;;7.16;100.00
42111;BME280;27766;52.174;5.456;2023-12-20T00:59:39;101415.03;;;7.11;100.00
42111;BME280;27766;52.174;5.456;2023-12-20T01:02:06;101414.19;;;7.10;100.00
42111;BME280;27766;52.174;5.456;2023-12-20T01:04:33;101396.78;;;7.05;100.00
42111;BME280;27766;52.174;5.456;2023-12-20T01:07:01;101411.22;;;7.01;100.00
42111;BME280;27766;52.174;5.456;2023-12-20T01:09:28;101398.47;;;7.04;100.00
42111;BME280;27766;52.174;5.456;2023-12-20T01:11:55;101404.19;;;6.97;100.00
42111;BME280;27766;52.174;5.456;2023-12-20T01:14:22;101395.34;;;7.11;100.00
42111;BME280;27766;52.174;5.456;2023-12-20T01:16:49;101408.03;;;7.07;100.00
42111;BME280;27766;52.174;5.456;2023-12-20T01:19:16;101398.47;;;7.04;100.00
42111;BME280;27766;52.174;5.456;2023-12-20T01:21:43;101404.34;;;7.02;100.00
42111;BME280;27766;52.174;5.456;2023-12-20T01:24:10;101413.72;;;7.00;100.00
42111;BME280;27766;52.174;5.456;2023-12-20T01:26:38;101417.50;;;7.08;100.00
42111;BME280;27766;52.174;5.456;2023-12-20T01:29:05;101425.72;;;7.20;100.00
42111;BME280;27766;52.174;5.456;2023-12-20T01:31:33;101422.16;;;7.17;100.00
42111;BME280;27766;52.174;5.456;2023-12-20T01:34:00;101421.94;;;7.12;100.00
42111;BME280;27766;52.174;5.456;2023-12-20T01:36:27;101427.16;;;7.13;100.00
42111;BME280;27766;52.174;5.456;2023-12-20T01:38:54;101420.09;;;7.08;100.00
42111;BME280;27766;52.174;5.456;2023-12-20T01:41:21;101408.13;;;7.10;100.00
42111;BME280;27766;52.174;5.456;2023-12-20T01:43:50;101406.38;;;7.09;100.00
42111;BME280;27766;52.174;5.456;2023-12-20T01:46:18;101405.13;;;7.20;100.00
42111;BME280;27766;52.174;5.456;2023-12-20T01:48:48;101394.97;;;7.23;100.00
42111;BME280;27766;52.174;5.456;2023-12-20T01:51:15;101404.38;;;7.23;100.00
42111;BME280;27766;52.174;5.456;2023-12-20T01:53:43;101399.28;;;7.24;100.00
42111;BME280;27766;52.174;5.456;2023-12-20T01:56:11;101401.47;;;7.36;100.00
42111;BME280;27766;52.174;5.456;2023-12-20T01:58:43;101407.38;;;7.34;100.00
42111;BME280;27766;52.174;5.456;2023-12-20T02:01:11;101406.75;;;7.39;100.00
42111;BME280;27766;52.174;5.456;2023-12-20T02:03:42;101395.31;;;7.33;100.00
42111;BME280;27766;52.174;5.456;2023-12-20T02:06:09;101393.94;;;7.41;100.00
42111;BME280;27766;52.174;5.456;2023-12-20T02:08:37;101411.50;;;7.51;100.00
42111;BME280;27766;52.174;5.456;2023-12-20T02:11:04;101406.38;;;7.30;100.00
42111;BME280;27766;52.174;5.456;2023-12-20T02:13:31;101401.47;;;7.36;100.00
42111;BME280;27766;52.174;5.456;2023-12-20T02:15:59;101385.97;;;7.35;100.00
42111;BME280;27766;52.174;5.456;2023-12-20T02:18:27;101399.53;;;7.31;100.00
42111;BME280;27766;52.174;5.456;2023-12-20T02:20:54;101403.59;;;7.47;100.00
42111;BME280;27766;52.174;5.456;2023-12-20T02:23:22;101404.59;;;7.50;100.00
42111;BME280;27766;52.174;5.456;2023-12-20T02:25:49;101401.88;;;7.47;100.00
42111;BME280;27766;52.174;5.456;2023-12-20T02:28:16;101403.84;;;7.53;100.00
42111;BME280;27766;52.174;5.456;2023-12-20T02:30:44;101410.66;;;7.51;100.00
42111;BME280;27766;52.174;5.456;2023-12-20T02:33:12;101394.28;;;7.50;100.00
42111;BME280;27766;52.174;5.456;2023-12-20T02:35:40;101388.28;;;7.50;100.00
42111;BME280;27766;52.174;5.456;2023-12-20T02:38:07;101395.44;;;7.57;100.00
42111;BME280;27766;52.174;5.456;2023-12-20T02:40:34;101395.00;;;7.46;100.00
42111;BME280;27766;52.174;5.456;2023-12-20T02:43:01;101386.00;;;7.36;100.00
42111;BME280;27766;52.174;5.456;2023-12-20T02:45:28;101386.00;;;7.36;100.00
42111;BME280;27766;52.174;5.456;2023-12-20T02:47:55;101380.13;;;7.39;100.00
42111;BME280;27766;52.174;5.456;2023-12-20T02:50:22;101378.72;;;7.47;100.00
42111;BME280;27766;52.174;5.456;2023-12-20T02:52:50;101380.75;;;7.54;100.00
42111;BME280;27766;52.174;5.456;2023-12-20T02:55:17;101369.66;;;7.57;100.00
42111;BME280;27766;52.174;5.456;2023-12-20T02:57:44;101375.69;;;7.57;100.00
42111;BME280;27766;52.174;5.456;2023-12-20T03:00:12;101375.06;;;7.63;100.00
42111;BME280;27766;52.174;5.456;2023-12-20T03:02:39;101369.44;;;7.51;100.00
42111;BME280;27766;52.174;5.456;2023-12-20T03:05:06;101369.16;;;7.44;100.00
42111;BME280;27766;52.174;5.456;2023-12-20T03:07:34;101367.66;;;7.50;100.00
42111;BME280;27766;52.174;5.456;2023-12-20T03:10:03;101323.34;;;7.36;100.00
42111;BME280;27766;52.174;5.456;2023-12-20T03:12:46;101363.53;;;7.53;100.00
42111;BME280;27766;52.174;5.456;2023-12-20T03:15:13;101358.28;;;7.52;100.00
42111;BME280;27766;52.174;5.456;2023-12-20T03:17:40;101346.56;;;7.60;100.00
42111;BME280;27766;52.174;5.456;2023-12-20T03:20:08;101361.03;;;7.56;100.00
42111;BME280;27766;52.174;5.456;2023-12-20T03:22:36;101355.25;;;7.62;100.00
42111;BME280;27766;52.174;5.456;2023-12-20T03:25:03;101351.44;;;7.52;100.00
42111;BME280;27766;52.174;5.456;2023-12-20T03:27:30;101346.06;;;7.46;100.00
42111;BME280;27766;52.174;5.456;2023-12-20T03:29:57;101339.25;;;7.48;100.00
42111;BME280;27766;52.174;5.456;2023-12-20T03:32:24;101341.66;;;7.43;100.00
42111;BME280;27766;52.174;5.456;2023-12-20T03:34:52;101353.78;;;7.46;100.00
42111;BME280;27766;52.174;5.456;2023-12-20T03:37:19;101344.13;;;7.63;100.00
42111;BME280;27766;52.174;5.456;2023-12-20T03:39:46;101346.25;;;7.73;100.00
42111;BME280;27766;52.174;5.456;2023-12-20T03:42:14;101347.16;;;7.75;100.00
42111;BME280;27766;52.174;5.456;2023-12-20T03:44:41;101351.91;;;7.65;100.00
42111;BME280;27766;52.174;5.456;2023-12-20T03:47:08;101354.66;;;7.69;100.00
42111;BME280;27766;52.174;5.456;2023-12-20T03:49:35;101351.41;;;7.73;100.00
42111;BME280;27766;52.174;5.456;2023-12-20T03:52:07;101347.00;;;7.71;100.00
42111;BME280;27766;52.174;5.456;2023-12-20T03:54:37;101353.00;;;7.70;100.00
42111;BME280;27766;52.174;5.456;2023-12-20T03:57:05;101348.81;;;7.73;100.00
42111;BME280;27766;52.174;5.456;2023-12-20T03:59:36;101355.56;;;7.70;100.00
42111;BME280;27766;52.174;5.456;2023-12-20T04:02:03;101354.22;;;7.80;100.00
42111;BME280;27766;52.174;5.456;2023-12-20T04:04:30;101355.03;;;7.79;100.00
42111;BME280;27766;52.174;5.456;2023-12-20T04:06:58;101348.16;;;7.79;100.00
42111;BME280;27766;52.174;5.456;2023-12-20T04:09:25;101346.66;;;7.84;100.00
42111;BME280;27766;52.174;5.456;2023-12-20T04:11:52;101352.19;;;7.95;100.00
42111;BME280;27766;52.174;5.456;2023-12-20T04:14:19;101359.75;;;7.90;100.00
42111;BME280;27766;52.174;5.456;2023-12-20T04:16:46;101332.34;;;7.92;100.00
42111;BME280;27766;52.174;5.456;2023-12-20T04:19:14;101340.09;;;7.92;100.00
42111;BME280;27766;52.174;5.456;2023-12-20T04:21:41;101340.13;;;7.94;100.00
42111;BME280;27766;52.174;5.456;2023-12-20T04:24:08;101339.22;;;7.93;100.00
42111;BME280;27766;52.174;5.456;2023-12-20T04:26:35;101340.13;;;7.94;100.00
42111;BME280;27766;52.174;5.456;2023-12-20T04:29:03;101347.03;;;8.19;100.00
42111;BME280;27766;52.174;5.456;2023-12-20T04:31:30;101338.13;;;8.10;100.00
42111;BME280;27766;52.174;5.456;2023-12-20T04:33:57;101340.56;;;8.06;100.00
42111;BME280;27766;52.174;5.456;2023-12-20T04:36:24;101347.44;;;8.06;100.00
42111;BME280;27766;52.174;5.456;2023-12-20T04:38:53;101338.81;;;8.05;100.00
42111;BME280;27766;52.174;5.456;2023-12-20T04:41:21;101344.56;;;7.98;100.00
42111;BME280;27766;52.174;5.456;2023-12-20T04:43:48;101347.00;;;8.18;100.00
42111;BME280;27766;52.174;5.456;2023-12-20T04:46:15;101338.38;;;8.17;100.00
42111;BME280;27766;52.174;5.456;2023-12-20T04:48:42;101336.94;;;8.26;100.00
42111;BME280;27766;52.174;5.456;2023-12-20T04:51:09;101336.56;;;8.15;100.00
42111;BME280;27766;52.174;5.456;2023-12-20T04:53:36;101323.03;;;8.20;100.00
42111;BME280;27766;52.174;5.456;2023-12-20T04:56:04;101327.53;;;8.26;100.00
42111;BME280;27766;52.174;5.456;2023-12-20T04:58:31;101328.00;;;8.16;100.00
42111;BME280;27766;52.174;5.456;2023-12-20T05:00:58;101321.84;;;8.36;100.00
42111;BME280;27766;52.174;5.456;2023-12-20T05:03:26;101324.34;;;8.33;100.00
42111;BME280;27766;52.174;5.456;2023-12-20T05:05:53;101328.50;;;8.30;100.00
42111;BME280;27766;52.174;5.456;2023-12-20T05:08:20;101335.44;;;8.31;100.00
42111;BME280;27766;52.174;5.456;2023-12-20T05:10:48;101335.44;;;8.31;100.00
42111;BME280;27766;52.174;5.456;2023-12-20T05:13:15;101336.34;;;8.33;100.00
42111;BME280;27766;52.174;5.456;2023-12-20T05:15:43;101325.75;;;8.25;100.00
42111;BME280;27766;52.174;5.456;2023-12-20T05:18:10;101325.19;;;8.34;100.00
42111;BME280;27766;52.174;5.456;2023-12-20T05:20:37;101328.50;;;8.30;100.00
42111;BME280;27766;52.174;5.456;2023-12-20T05:23:04;101334.09;;;8.42;100.00
42111;BME280;27766;52.174;5.456;2023-12-20T05:25:32;101340.94;;;8.17;100.00
42111;BME280;27766;52.174;5.456;2023-12-20T05:27:59;101342.56;;;8.38;100.00
42111;BME280;27766;52.174;5.456;2023-12-20T05:30:26;101336.94;;;8.26;100.00
42111;BME280;27766;52.174;5.456;2023-12-20T05:32:53;101332.00;;;8.32;100.00
42111;BME280;27766;52.174;5.456;2023-12-20T05:35:21;101335.44;;;8.31;100.00
42111;BME280;27766;52.174;5.456;2023-12-20T05:37:50;101332.00;;;8.32;100.00
42111;BME280;27766;52.174;5.456;2023-12-20T05:40:17;101332.94;;;8.34;100.00
42111;BME280;27766;52.174;5.456;2023-12-20T05:42:44;101329.53;;;8.35;100.00
42111;BME280;27766;52.174;5.456;2023-12-20T05:45:12;101322.03;;;8.17;100.00
42111;BME280;27766;52.174;5.456;2023-12-20T05:47:39;101330.72;;;8.19;100.00
42111;BME280;27766;52.174;5.456;2023-12-20T05:50:07;101340.34;;;8.24;100.00
42111;BME280;27766;52.174;5.456;2023-12-20T05:52:34;101335.50;;;8.34;100.00
42111;BME280;27766;52.174;5.456;2023-12-20T05:55:02;101327.41;;;8.23;100.00
42111;BME280;27766;52.174;5.456;2023-12-20T05:57:29;101331.47;;;8.40;100.00
42111;BME280;27766;52.174;5.456;2023-12-20T05:59:56;101342.72;;;8.43;100.00
42111;BME280;27766;52.174;5.456;2023-12-20T06:02:23;101318.41;;;8.36;100.00
42111;BME280;27766;52.174;5.456;2023-12-20T06:04:50;101327.69;;;8.31;100.00
42111;BME280;27766;52.174;5.456;2023-12-20T06:07:18;101327.78;;;8.34;100.00
42111;BME280;27766;52.174;5.456;2023-12-20T06:09:46;101322.66;;;8.35;100.00
42111;BME280;27766;52.174;5.456;2023-12-20T06:12:13;101334.09;;;8.42;100.00
42111;BME280;27766;52.174;5.456;2023-12-20T06:14:40;101323.47;;;8.57;100.00
42111;BME280;27766;52.174;5.456;2023-12-20T06:17:07;101314.59;;;8.49;100.00
42111;BME280;27766;52.174;5.456;2023-12-20T06:19:34;101321.53;;;8.51;100.00
42111;BME280;27766;52.174;5.456;2023-12-20T06:22:02;101313.19;;;8.59;100.00
42111;BME280;27766;52.174;5.456;2023-12-20T06:24:29;101305.63;;;8.39;100.00
42111;BME280;27766;52.174;5.456;2023-12-20T06:26:56;101301.69;;;8.49;100.00
42111;BME280;27766;52.174;5.456;2023-12-20T06:29:24;101309.59;;;8.53;100.00
42111;BME280;27766;52.174;5.456;2023-12-20T06:31:51;101319.19;;;8.33;100.00
42111;BME280;27766;52.174;5.456;2023-12-20T06:34:18;101322.91;;;8.42;100.00
42111;BME280;27766;52.174;5.456;2023-12-20T06:36:45;101310.28;;;8.49;100.00
42111;BME280;27766;52.174;5.456;2023-12-20T06:39:12;101313.69;;;8.48;100.00
42111;BME280;27766;52.174;5.456;2023-12-20T06:41:40;101308.66;;;8.51;100.00
42111;BME280;27766;52.174;5.456;2023-12-20T06:44:08;101315.81;;;8.36;100.00
42111;BME280;27766;52.174;5.456;2023-12-20T06:46:35;101304.03;;;8.43;100.00
42111;BME280;27766;52.174;5.456;2023-12-20T06:49:02;101314.50;;;8.47;100.00
42111;BME280;27766;52.174;5.456;2023-12-20T06:51:30;101298.56;;;8.59;100.00
42111;BME280;27766;52.174;5.456;2023-12-20T06:53:57;101290.66;;;8.54;100.00
42111;BME280;27766;52.174;5.456;2023-12-20T06:56:25;101306.03;;;8.50;100.00
42111;BME280;27766;52.174;5.456;2023-12-20T06:58:52;101299.41;;;8.58;100.00
42111;BME280;27766;52.174;5.456;2023-12-20T07:01:19;101299.34;;;8.57;100.00
42111;BME280;27766;52.174;5.456;2023-12-20T07:03:47;101301.84;;;8.53;100.00
42111;BME280;27766;52.174;5.456;2023-12-20T07:06:14;101295.13;;;8.59;100.00
42111;BME280;27766;52.174;5.456;2023-12-20T07:08:43;101303.81;;;8.61;100.00
42111;BME280;27766;52.174;5.456;2023-12-20T07:11:11;101293.75;;;8.70;100.00
42111;BME280;27766;52.174;5.456;2023-12-20T07:13:38;101306.09;;;8.53;100.00
42111;BME280;27766;52.174;5.456;2023-12-20T07:16:06;101301.94;;;8.57;100.00
42111;BME280;27766;52.174;5.456;2023-12-20T07:18:33;101303.88;;;8.64;100.00
42111;BME280;27766;52.174;5.456;2023-12-20T07:21:00;101305.75;;;8.68;100.00
42111;BME280;27766;52.174;5.456;2023-12-20T07:23:28;101309.66;;;8.82;100.00
42111;BME280;27766;52.174;5.456;2023-12-20T07:25:55;101294.63;;;8.69;100.00
42111;BME280;27766;52.174;5.456;2023-12-20T07:28:22;101284.38;;;8.72;100.00
42111;BME280;27766;52.174;5.456;2023-12-20T07:30:49;101285.78;;;8.62;100.00
42111;BME280;27766;52.174;5.456;2023-12-20T07:33:16;101285.13;;;8.68;100.00
42111;BME280;27766;52.174;5.456;2023-12-20T07:35:43;101278.56;;;8.79;100.00
42111;BME280;27766;52.174;5.456;2023-12-20T07:38:12;101280.25;;;8.77;100.00
42111;BME280;27766;52.174;5.456;2023-12-20T07:40:39;101273.22;;;8.73;100.00
42111;BME280;27766;52.174;5.456;2023-12-20T07:43:06;101276.81;;;8.78;100.00
42111;BME280;27766;52.174;5.456;2023-12-20T07:45:34;101283.75;;;8.79;100.00
42111;BME280;27766;52.174;5.456;2023-12-20T07:48:02;101287.09;;;8.77;100.00
42111;BME280;27766;52.174;5.456;2023-12-20T07:50:29;101283.06;;;8.85;100.00
42111;BME280;27766;52.174;5.456;2023-12-20T07:52:56;101286.94;;;8.72;100.00
42111;BME280;27766;52.174;5.456;2023-12-20T07:55:27;101294.69;;;8.72;100.00
42111;BME280;27766;52.174;5.456;2023-12-20T07:57:54;101311.16;;;8.76;100.00
42111;BME280;27766;52.174;5.456;2023-12-20T08:00:22;101313.94;;;8.82;100.00
42111;BME280;27766;52.174;5.456;2023-12-20T08:02:49;101309.84;;;8.89;100.00
42111;BME280;27766;52.174;5.456;2023-12-20T08:05:17;101312.44;;;8.89;100.00
42111;BME280;27766;52.174;5.456;2023-12-20T08:07:45;101325.38;;;8.90;100.00
42111;BME280;27766;52.174;5.456;2023-12-20T08:10:12;101320.56;;;9.01;100.00
42111;BME280;27766;52.174;5.456;2023-12-20T08:12:40;101328.44;;;9.04;100.00
42111;BME280;27766;52.174;5.456;2023-12-20T08:15:07;101329.06;;;8.97;100.00
42111;BME280;27766;52.174;5.456;2023-12-20T08:17:34;101314.66;;;9.03;100.00
42111;BME280;27766;52.174;5.456;2023-12-20T08:20:02;101325.31;;;8.87;100.00
42111;BME280;27766;52.174;5.456;2023-12-20T08:22:30;101316.94;;;8.68;100.00
42111;BME280;27766;52.174;5.456;2023-12-20T08:24:57;101314.44;;;8.97;100.00
42111;BME280;27766;52.174;5.456;2023-12-20T08:27:24;101309.97;;;8.92;100.00
42111;BME280;27766;52.174;5.456;2023-12-20T08:29:52;101306.75;;;8.99;100.00
42111;BME280;27766;52.174;5.456;2023-12-20T08:32:19;101297.06;;;8.92;100.00
42111;BME280;27766;52.174;5.456;2023-12-20T08:34:47;101307.78;;;8.78;100.00
42111;BME280;27766;52.174;5.456;2023-12-20T08:37:14;101304.69;;;8.89;100.00
42111;BME280;27766;52.174;5.456;2023-12-20T08:39:42;101290.06;;;8.89;100.00
42111;BME280;27766;52.174;5.456;2023-12-20T08:42:12;101299.84;;;8.98;100.00
42111;BME280;27766;52.174;5.456;2023-12-20T08:44:39;101294.47;;;8.92;100.00
42111;BME280;27766;52.174;5.456;2023-12-20T08:47:06;101303.44;;;9.03;100.00
42111;BME280;27766;52.174;5.456;2023-12-20T08:49:34;101292.81;;;8.94;100.00
42111;BME280;27766;52.174;5.456;2023-12-20T08:52:02;101297.25;;;8.98;100.00
42111;BME280;27766;52.174;5.456;2023-12-20T08:54:29;101300.53;;;8.94;100.00
42111;BME280;27766;52.174;5.456;2023-12-20T08:56:56;101301.97;;;8.84;100.00
42111;BME280;27766;52.174;5.456;2023-12-20T08:59:23;101302.84;;;8.84;100.00
42111;BME280;27766;52.174;5.456;2023-12-20T09:01:50;101293.75;;;8.70;100.00
42111;BME280;27766;52.174;5.456;2023-12-20T09:04:22;101305.59;;;8.63;100.00
42111;BME280;27766;52.174;5.456;2023-12-20T09:06:49;101299.78;;;8.69;100.00
42111;BME280;27766;52.174;5.456;2023-12-20T09:09:16;101293.84;;;8.71;100.00
42111;BME280;27766;52.174;5.456;2023-12-20T09:11:43;101295.44;;;8.68;100.00
42111;BME280;27766;52.174;5.456;2023-12-20T09:14:13;101292.13;;;8.72;100.00
42111;BME280;27766;52.174;5.456;2023-12-20T09:16:40;101281.78;;;8.72;100.00
42111;BME280;27766;52.174;5.456;2023-12-20T09:19:07;101287.84;;;8.73;100.00
42111;BME280;27766;52.174;5.456;2023-12-20T09:21:34;101292.13;;;8.72;100.00
42111;BME280;27766;52.174;5.456;2023-12-20T09:24:02;101272.22;;;8.68;100.00
42111;BME280;27766;52.174;5.456;2023-12-20T09:26:29;101288.19;;;8.83;100.00
42111;BME280;27766;52.174;5.456;2023-12-20T09:28:56;101286.78;;;8.93;100.00
42111;BME280;27766;52.174;5.456;2023-12-20T09:31:24;101279.03;;;8.93;100.00
42111;BME280;27766;52.174;5.456;2023-12-20T09:33:51;101299.00;;;8.99;100.00
42111;BME280;27766;52.174;5.456;2023-12-20T09:36:19;101294.47;;;8.92;100.00
42111;BME280;27766;52.174;5.456;2023-12-20T09:38:46;101283.44;;;8.97;100.00
42111;BME280;27766;52.174;5.456;2023-12-20T09:41:14;101281.09;;;9.03;100.00
42111;BME280;27766;52.174;5.456;2023-12-20T09:43:41;101288.56;;;8.96;100.00
42111;BME280;27766;52.174;5.456;2023-12-20T09:46:10;101306.91;;;9.03;100.00
42111;BME280;27766;52.174;5.456;2023-12-20T09:48:39;101295.03;;;9.10;100.00
42111;BME280;27766;52.174;5.456;2023-12-20T09:51:07;101295.94;;;9.11;100.00
42111;BME280;27766;52.174;5.456;2023-12-20T09:53:36;101292.47;;;9.10;100.00
42111;BME280;27766;52.174;5.456;2023-12-20T09:56:06;101294.25;;;9.13;100.00
42111;BME280;27766;52.174;5.456;2023-12-20T09:58:37;101289.25;;;9.17;100.00
42111;BME280;27766;52.174;5.456;2023-12-20T10:01:06;101300.31;;;9.13;100.00
42111;BME280;27766;52.174;5.456;2023-12-20T10:03:33;101293.75;;;9.25;100.00
42111;BME280;27766;52.174;5.456;2023-12-20T10:06:02;101301.66;;;9.29;100.00
42111;BME280;27766;52.174;5.456;2023-12-20T10:08:29;101311.47;;;9.40;100.00
42111;BME280;27766;52.174;5.456;2023-12-20T10:10:57;101310.03;;;9.49;100.00
42111;BME280;27766;52.174;5.456;2023-12-20T10:13:29;101319.03;;;9.62;100.00
42111;BME280;27766;52.174;5.456;2023-12-20T10:15:56;101320.22;;;9.45;100.00
42111;BME280;27766;52.174;5.456;2023-12-20T10:18:24;101310.44;;;9.63;100.00
42111;BME280;27766;52.174;5.456;2023-12-20T10:21:06;101309.81;;;9.72;100.00
42111;BME280;27766;52.174;5.456;2023-12-20T10:23:34;101311.41;;;9.67;100.00
42111;BME280;27766;52.174;5.456;2023-12-20T10:26:02;101305.97;;;9.58;100.00
42111;BME280;27766;52.174;5.456;2023-12-20T10:28:33;101306.06;;;9.61;100.00
42111;BME280;27766;52.174;5.456;2023-12-20T10:31:01;101305.31;;;9.65;100.00
42111;BME280;27766;52.174;5.456;2023-12-20T10:33:30;101302.69;;;9.63;100.00
42111;BME280;27766;52.174;5.456;2023-12-20T10:36:00;101279.63;;;9.71;100.00
42111;BME280;27766;52.174;5.456;2023-12-20T10:38:27;101296.59;;;9.61;100.00
42111;BME280;27766;52.174;5.456;2023-12-20T10:40:57;101300.00;;;9.60;100.00
42111;BME280;27766;52.174;5.456;2023-12-20T10:43:28;101301.75;;;9.61;100.00
42111;BME280;27766;52.174;5.456;2023-12-20T10:45:57;101293.97;;;9.60;100.00
42111;BME280;27766;52.174;5.456;2023-12-20T10:48:24;101288.84;;;9.61;100.00
42111;BME280;27766;52.174;5.456;2023-12-20T10:50:57;101291.56;;;9.66;100.00
42111;BME280;27766;52.174;5.456;2023-12-20T10:53:25;101277.00;;;9.70;100.00
42111;BME280;27766;52.174;5.456;2023-12-20T10:55:55;101283.47;;;9.86;100.00
42111;BME280;27766;52.174;5.456;2023-12-20T10:58:24;101288.84;;;9.92;100.00
42111;BME280;27766;52.174;5.456;2023-12-20T11:00:59;101294.63;;;9.83;100.00
42111;BME280;27766;52.174;5.456;2023-12-20T11:03:32;101273.41;;;9.95;100.00
42111;BME280;27766;52.174;5.456;2023-12-20T11:06:07;101283.31;;;10.11;100.00
42111;BME280;27766;52.174;5.456;2023-12-20T11:08:45;101287.69;;;10.14;100.00
42111;BME280;27766;52.174;5.456;2023-12-20T11:12:02;101277.78;;;9.97;100.00
42111;BME280;27766;52.174;5.456;2023-12-20T11:14:15;101281.78;;;9.86;100.00
42111;BME280;27766;52.174;5.456;2023-12-20T11:16:44;101275.97;;;9.95;100.00
42111;BME280;27766;52.174;5.456;2023-12-20T11:19:21;101274.22;;;9.94;100.00
42111;BME280;27766;52.174;5.456;2023-12-20T11:21:48;101262.22;;;9.96;100.00
42111;BME280;27766;52.174;5.456;2023-12-20T11:24:16;101262.31;;;9.99;100.00
42111;BME280;27766;52.174;5.456;2023-12-20T11:26:47;101243.00;;;9.86;100.00
42111;BME280;27766;52.174;5.456;2023-12-20T11:29:35;101248.78;;;10.09;100.00
42111;BME280;27766;52.174;5.456;2023-12-20T11:35:17;101251.91;;;10.31;100.00
42111;BME280;27766;52.174;5.456;2023-12-20T11:37:46;101234.50;;;10.24;100.00
42111;BME280;27766;52.174;5.456;2023-12-20T11:40:17;101243.19;;;10.26;100.00
42111;BME280;27766;52.174;5.456;2023-12-20T11:42:49;101250.50;;;10.41;100.00
42111;BME280;27766;52.174;5.456;2023-12-20T11:45:18;101231.44;;;10.37;100.00
42111;BME280;27766;52.174;5.456;2023-12-20T11:47:51;101227.91;;;10.35;100.00
42111;BME280;27766;52.174;5.456;2023-12-20T11:50:19;101238.97;;;10.29;100.00
42111;BME280;27766;52.174;5.456;2023-12-20T11:52:48;101234.81;;;10.36;100.00
42111;BME280;27766;52.174;5.456;2023-12-20T11:55:16;101223.00;;;10.46;100.00
42111;BME280;27766;52.174;5.456;2023-12-20T11:57:43;101219.75;;;10.53;100.00
42111;BME280;27766;52.174;5.456;2023-12-20T12:00:13;101239.00;;;10.31;100.00
42111;BME280;27766;52.174;5.456;2023-12-20T12:02:41;101213.03;;;10.26;100.00
42111;BME280;27766;52.174;5.456;2023-12-20T12:05:08;101226.31;;;10.40;100.00
42111;BME280;27766;52.174;5.456;2023-12-20T12:07:36;101231.03;;;10.57;100.00
42111;BME280;27766;52.174;5.456;2023-12-20T12:10:03;101223.56;;;10.34;100.00
42111;BME280;27766;52.174;5.456;2023-12-20T12:12:31;101231.22;;;10.31;100.00
42111;BME280;27766;52.174;5.456;2023-12-20T12:14:59;101224.41;;;10.35;100.00
42111;BME280;27766;52.174;5.456;2023-12-20T12:17:26;101238.31;;;10.37;100.00
42111;BME280;27766;52.174;5.456;2023-12-20T12:20:02;101255.75;;;10.12;100.00
42111;BME280;27766;52.174;5.456;2023-12-20T12:22:30;101237.84;;;10.20;100.00
42111;BME280;27766;52.174;5.456;2023-12-20T12:24:59;101227.75;;;10.29;100.00
42111;BME280;27766;52.174;5.456;2023-12-20T12:27:36;101208.00;;;10.33;100.00
42111;BME280;27766;52.174;5.456;2023-12-20T12:30:05;101216.25;;;10.19;100.00
42111;BME280;27766;52.174;5.456;2023-12-20T12:32:36;101191.53;;;10.29;100.00
42111;BME280;27766;52.174;5.456;2023-12-20T12:35:04;101211.09;;;10.19;100.00
42111;BME280;27766;52.174;5.456;2023-12-20T12:37:34;101201.38;;;10.09;100.00
42111;BME280;27766;52.174;5.456;2023-12-20T12:40:04;101199.53;;;10.38;100.00
42111;BME280;27766;52.174;5.456;2023-12-20T12:42:32;101204.50;;;10.32;100.00
42111;BME280;27766;52.174;5.456;2023-12-20T12:44:59;101184.50;;;10.25;100.00
42111;BME280;27766;52.174;5.456;2023-12-20T12:47:26;101182.59;;;10.18;100.00
42111;BME280;27766;52.174;5.456;2023-12-20T12:49:54;101182.03;;;10.29;100.00
42111;BME280;27766;52.174;5.456;2023-12-20T12:52:21;101195.63;;;10.21;100.00
42111;BME280;27766;52.174;5.456;2023-12-20T12:54:49;101197.50;;;10.26;100.00